sensor_id;sensor_type;location;lat;lon;timestamp;P1;durP1;ratioP1;P2;durP2;ratioP2
38611;SDS011;24368;52.156;20.788;2023-04-06T00:03:16;4.70;;;4.00;;
38611;SDS011;24368;52.156;20.788;2023-04-06T00:08:17;5.70;;;4.60;;
38611;SDS011;24368;52.156;20.788;2023-04-06T00:13:18;5.70;;;5.20;;
38611;SDS011;24368;52.156;20.788;2023-04-06T00:18:20;5.30;;;4.30;;
38611;SDS011;24368;52.156;20.788;2023-04-06T00:23:21;4.80;;;4.20;;
38611;SDS011;24368;52.156;20.788;2023-04-06T00:28:22;6.80;;;4.40;;
38611;SDS011;24368;52.156;20.788;2023-04-06T00:33:26;5.70;;;4.70;;
38611;SDS011;24368;52.156;20.788;2023-04-06T00:38:27;5.80;;;5.20;;
38611;SDS011;24368;52.156;20.788;2023-04-06T00:43:29;5.90;;;4.60;;
38611;SDS011;24368;52.156;20.788;2023-04-06T00:48:30;4.70;;;4.20;;
38611;SDS011;24368;52.156;20.788;2023-04-06T00:53:32;5.30;;;4.00;;
38611;SDS011;24368;52.156;20.788;2023-04-06T00:58:33;4.80;;;3.70;;
38611;SDS011;24368;52.156;20.788;2023-04-06T01:03:38;4.60;;;3.70;;
38611;SDS011;24368;52.156;20.788;2023-04-06T01:08:39;6.60;;;4.40;;
38611;SDS011;24368;52.156;20.788;2023-04-06T01:13:41;4.30;;;3.30;;
38611;SDS011;24368;52.156;20.788;2023-04-06T01:18:42;5.50;;;3.70;;
38611;SDS011;24368;52.156;20.788;2023-04-06T01:23:44;5.20;;;3.60;;
38611;SDS011;24368;52.156;20.788;2023-04-06T01:28:46;4.30;;;3.90;;
38611;SDS011;24368;52.156;20.788;2023-04-06T01:33:47;4.10;;;3.40;;
38611;SDS011;24368;52.156;20.788;2023-04-06T01:38:48;4.00;;;3.60;;
38611;SDS011;24368;52.156;20.788;2023-04-06T01:43:50;3.60;;;3.30;;
38611;SDS011;24368;52.156;20.788;2023-04-06T01:48:55;6.00;;;3.50;;
38611;SDS011;24368;52.156;20.788;2023-04-06T01:53:56;4.70;;;3.50;;
38611;SDS011;24368;52.156;20.788;2023-04-06T01:58:57;5.70;;;4.00;;
38611;SDS011;24368;52.156;20.788;2023-04-06T02:03:58;4.80;;;4.10;;
38611;SDS011;24368;52.156;20.788;2023-04-06T02:08:59;4.00;;;3.60;;
38611;SDS011;24368;52.156;20.788;2023-04-06T02:14:00;6.60;;;4.60;;
38611;SDS011;24368;52.156;20.788;2023-04-06T02:19:01;6.20;;;4.40;;
38611;SDS011;24368;52.156;20.788;2023-04-06T02:24:02;6.70;;;4.90;;
38611;SDS011;24368;52.156;20.788;2023-04-06T02:29:04;7.80;;;5.70;;
38611;SDS011;24368;52.156;20.788;2023-04-06T02:34:05;6.10;;;5.20;;
38611;SDS011;24368;52.156;20.788;2023-04-06T02:39:07;8.60;;;5.60;;
38611;SDS011;24368;52.156;20.788;2023-04-06T02:44:08;9.10;;;6.90;;
38611;SDS011;24368;52.156;20.788;2023-04-06T02:49:10;8.50;;;6.30;;
38611;SDS011;24368;52.156;20.788;2023-04-06T02:54:11;7.20;;;5.60;;
38611;SDS011;24368;52.156;20.788;2023-04-06T02:59:12;8.20;;;5.90;;
38611;SDS011;24368;52.156;20.788;2023-04-06T03:04:13;10.10;;;6.80;;
38611;SDS011;24368;52.156;20.788;2023-04-06T03:09:14;9.50;;;6.20;;
38611;SDS011;24368;52.156;20.788;2023-04-06T03:14:15;7.50;;;5.90;;
38611;SDS011;24368;52.156;20.788;2023-04-06T03:19:18;7.20;;;5.00;;
38611;SDS011;24368;52.156;20.788;2023-04-06T03:24:19;8.10;;;5.90;;
38611;SDS011;24368;52.156;20.788;2023-04-06T03:29:20;7.50;;;6.00;;
38611;SDS011;24368;52.156;20.788;2023-04-06T03:34:22;10.30;;;6.30;;
38611;SDS011;24368;52.156;20.788;2023-04-06T03:39:23;8.00;;;6.20;;
38611;SDS011;24368;52.156;20.788;2023-04-06T03:44:24;7.00;;;5.50;;
38611;SDS011;24368;52.156;20.788;2023-04-06T03:49:25;7.30;;;5.90;;
38611;SDS011;24368;52.156;20.788;2023-04-06T03:54:26;7.60;;;5.50;;
38611;SDS011;24368;52.156;20.788;2023-04-06T03:59:27;6.60;;;5.80;;
38611;SDS011;24368;52.156;20.788;2023-04-06T04:04:28;5.70;;;5.10;;
38611;SDS011;24368;52.156;20.788;2023-04-06T04:09:30;6.50;;;5.70;;
38611;SDS011;24368;52.156;20.788;2023-04-06T04:14:31;8.80;;;6.40;;
38611;SDS011;24368;52.156;20.788;2023-04-06T04:19:32;8.50;;;6.10;;
38611;SDS011;24368;52.156;20.788;2023-04-06T04:24:33;9.30;;;6.10;;
38611;SDS011;24368;52.156;20.788;2023-04-06T04:29:34;8.80;;;5.70;;
38611;SDS011;24368;52.156;20.788;2023-04-06T04:34:35;8.90;;;6.40;;
38611;SDS011;24368;52.156;20.788;2023-04-06T04:39:36;9.20;;;6.90;;
38611;SDS011;24368;52.156;20.788;2023-04-06T04:44:38;10.20;;;6.60;;
38611;SDS011;24368;52.156;20.788;2023-04-06T04:49:39;9.30;;;6.50;;
38611;SDS011;24368;52.156;20.788;2023-04-06T04:54:40;8.50;;;6.30;;
38611;SDS011;24368;52.156;20.788;2023-04-06T04:59:42;9.90;;;6.90;;
38611;SDS011;24368;52.156;20.788;2023-04-06T05:04:44;9.50;;;6.60;;
38611;SDS011;24368;52.156;20.788;2023-04-06T05:09:45;11.30;;;7.10;;
38611;SDS011;24368;52.156;20.788;2023-04-06T05:14:46;11.30;;;7.80;;
38611;SDS011;24368;52.156;20.788;2023-04-06T05:19:47;8.90;;;6.90;;
38611;SDS011;24368;52.156;20.788;2023-04-06T05:24:48;9.20;;;7.30;;
38611;SDS011;24368;52.156;20.788;2023-04-06T05:29:50;10.70;;;7.90;;
38611;SDS011;24368;52.156;20.788;2023-04-06T05:34:51;12.30;;;8.00;;
38611;SDS011;24368;52.156;20.788;2023-04-06T05:39:52;10.90;;;8.40;;
38611;SDS011;24368;52.156;20.788;2023-04-06T05:44:55;11.80;;;8.00;;
38611;SDS011;24368;52.156;20.788;2023-04-06T05:49:56;8.80;;;7.40;;
38611;SDS011;24368;52.156;20.788;2023-04-06T05:54:57;9.50;;;6.80;;
38611;SDS011;24368;52.156;20.788;2023-04-06T05:59:58;9.80;;;7.10;;
38611;SDS011;24368;52.156;20.788;2023-04-06T06:04:59;7.20;;;6.50;;
38611;SDS011;24368;52.156;20.788;2023-04-06T06:10:01;7.00;;;6.10;;
38611;SDS011;24368;52.156;20.788;2023-04-06T06:15:02;7.10;;;5.30;;
38611;SDS011;24368;52.156;20.788;2023-04-06T06:20:05;8.20;;;5.50;;
38611;SDS011;24368;52.156;20.788;2023-04-06T06:25:09;7.80;;;5.70;;
38611;SDS011;24368;52.156;20.788;2023-04-06T06:30:10;6.90;;;5.30;;
38611;SDS011;24368;52.156;20.788;2023-04-06T06:35:12;7.20;;;4.80;;
38611;SDS011;24368;52.156;20.788;2023-04-06T06:40:13;7.40;;;4.90;;
38611;SDS011;24368;52.156;20.788;2023-04-06T06:45:16;7.10;;;4.70;;
38611;SDS011;24368;52.156;20.788;2023-04-06T06:50:18;5.90;;;4.50;;
38611;SDS011;24368;52.156;20.788;2023-04-06T06:55:19;8.40;;;4.20;;
38611;SDS011;24368;52.156;20.788;2023-04-06T07:00:20;7.10;;;3.50;;
38611;SDS011;24368;52.156;20.788;2023-04-06T07:05:22;4.60;;;3.70;;
38611;SDS011;24368;52.156;20.788;2023-04-06T07:10:23;6.60;;;3.40;;
38611;SDS011;24368;52.156;20.788;2023-04-06T07:15:24;7.00;;;3.70;;
38611;SDS011;24368;52.156;20.788;2023-04-06T07:20:25;9.40;;;3.30;;
38611;SDS011;24368;52.156;20.788;2023-04-06T07:25:29;7.90;;;3.50;;
38611;SDS011;24368;52.156;20.788;2023-04-06T07:30:30;6.50;;;3.30;;
38611;SDS011;24368;52.156;20.788;2023-04-06T07:35:31;4.70;;;3.50;;
38611;SDS011;24368;52.156;20.788;2023-04-06T07:40:32;5.30;;;3.90;;
38611;SDS011;24368;52.156;20.788;2023-04-06T07:45:34;9.90;;;4.80;;
38611;SDS011;24368;52.156;20.788;2023-04-06T07:50:35;10.00;;;5.30;;
38611;SDS011;24368;52.156;20.788;2023-04-06T07:55:36;9.00;;;4.10;;
38611;SDS011;24368;52.156;20.788;2023-04-06T08:00:37;6.30;;;3.80;;
38611;SDS011;24368;52.156;20.788;2023-04-06T08:05:39;6.00;;;4.10;;
38611;SDS011;24368;52.156;20.788;2023-04-06T08:10:40;6.50;;;3.70;;
38611;SDS011;24368;52.156;20.788;2023-04-06T08:15:41;4.40;;;3.90;;
38611;SDS011;24368;52.156;20.788;2023-04-06T08:20:42;4.30;;;3.30;;
38611;SDS011;24368;52.156;20.788;2023-04-06T08:25:43;7.40;;;3.70;;
38611;SDS011;24368;52.156;20.788;2023-04-06T08:30:45;8.00;;;4.80;;
38611;SDS011;24368;52.156;20.788;2023-04-06T08:35:46;5.70;;;3.80;;
38611;SDS011;24368;52.156;20.788;2023-04-06T08:40:47;8.90;;;4.10;;
38611;SDS011;24368;52.156;20.788;2023-04-06T08:45:50;4.40;;;3.50;;
38611;SDS011;24368;52.156;20.788;2023-04-06T08:50:51;7.00;;;3.70;;
38611;SDS011;24368;52.156;20.788;2023-04-06T08:55:54;4.10;;;3.50;;
38611;SDS011;24368;52.156;20.788;2023-04-06T09:00:56;4.20;;;3.80;;
38611;SDS011;24368;52.156;20.788;2023-04-06T09:05:58;8.30;;;3.90;;
38611;SDS011;24368;52.156;20.788;2023-04-06T09:11:01;4.00;;;3.20;;
38611;SDS011;24368;52.156;20.788;2023-04-06T09:16:04;6.80;;;4.50;;
38611;SDS011;24368;52.156;20.788;2023-04-06T09:21:07;5.80;;;3.80;;
38611;SDS011;24368;52.156;20.788;2023-04-06T09:26:10;6.30;;;3.60;;
38611;SDS011;24368;52.156;20.788;2023-04-06T09:31:13;6.90;;;3.20;;
38611;SDS011;24368;52.156;20.788;2023-04-06T09:36:16;7.00;;;4.10;;
38611;SDS011;24368;52.156;20.788;2023-04-06T09:41:27;4.20;;;3.40;;
38611;SDS011;24368;52.156;20.788;2023-04-06T09:46:33;6.60;;;3.80;;
38611;SDS011;24368;52.156;20.788;2023-04-06T09:51:37;6.70;;;4.40;;
38611;SDS011;24368;52.156;20.788;2023-04-06T09:56:47;4.70;;;4.20;;
38611;SDS011;24368;52.156;20.788;2023-04-06T10:01:56;6.40;;;3.90;;
38611;SDS011;24368;52.156;20.788;2023-04-06T10:07:00;5.00;;;3.70;;
38611;SDS011;24368;52.156;20.788;2023-04-06T10:12:04;4.70;;;3.10;;
38611;SDS011;24368;52.156;20.788;2023-04-06T10:17:06;4.30;;;3.80;;
38611;SDS011;24368;52.156;20.788;2023-04-06T10:22:08;5.10;;;4.60;;
38611;SDS011;24368;52.156;20.788;2023-04-06T10:27:13;5.70;;;4.80;;
38611;SDS011;24368;52.156;20.788;2023-04-06T10:32:14;5.60;;;4.20;;
38611;SDS011;24368;52.156;20.788;2023-04-06T10:37:16;5.00;;;4.50;;
38611;SDS011;24368;52.156;20.788;2023-04-06T10:42:23;7.10;;;4.00;;
38611;SDS011;24368;52.156;20.788;2023-04-06T10:47:26;5.80;;;4.40;;
38611;SDS011;24368;52.156;20.788;2023-04-06T10:52:27;5.60;;;4.60;;
38611;SDS011;24368;52.156;20.788;2023-04-06T10:57:29;5.40;;;4.30;;
38611;SDS011;24368;52.156;20.788;2023-04-06T11:02:32;5.00;;;3.90;;
38611;SDS011;24368;52.156;20.788;2023-04-06T11:07:34;6.10;;;5.50;;
38611;SDS011;24368;52.156;20.788;2023-04-06T11:12:35;5.70;;;5.10;;
38611;SDS011;24368;52.156;20.788;2023-04-06T11:17:36;4.90;;;4.40;;
38611;SDS011;24368;52.156;20.788;2023-04-06T11:22:51;8.20;;;4.80;;
38611;SDS011;24368;52.156;20.788;2023-04-06T11:27:52;6.20;;;5.50;;
38611;SDS011;24368;52.156;20.788;2023-04-06T11:32:59;6.20;;;5.60;;
38611;SDS011;24368;52.156;20.788;2023-04-06T11:38:04;6.00;;;5.50;;
38611;SDS011;24368;52.156;20.788;2023-04-06T11:43:10;5.90;;;5.30;;
38611;SDS011;24368;52.156;20.788;2023-04-06T11:48:18;6.60;;;5.50;;
38611;SDS011;24368;52.156;20.788;2023-04-06T11:53:21;10.00;;;8.40;;
38611;SDS011;24368;52.156;20.788;2023-04-06T11:58:22;6.50;;;5.40;;
38611;SDS011;24368;52.156;20.788;2023-04-06T12:03:23;6.50;;;5.40;;
38611;SDS011;24368;52.156;20.788;2023-04-06T12:08:25;6.30;;;5.50;;
38611;SDS011;24368;52.156;20.788;2023-04-06T12:13:26;8.10;;;5.80;;
38611;SDS011;24368;52.156;20.788;2023-04-06T12:18:28;8.10;;;6.70;;
38611;SDS011;24368;52.156;20.788;2023-04-06T12:23:30;7.20;;;6.40;;
38611;SDS011;24368;52.156;20.788;2023-04-06T12:28:32;10.40;;;8.60;;
38611;SDS011;24368;52.156;20.788;2023-04-06T12:33:33;6.80;;;5.70;;
38611;SDS011;24368;52.156;20.788;2023-04-06T12:38:34;6.90;;;5.70;;
38611;SDS011;24368;52.156;20.788;2023-04-06T12:43:35;8.70;;;6.90;;
38611;SDS011;24368;52.156;20.788;2023-04-06T12:48:36;7.20;;;6.10;;
38611;SDS011;24368;52.156;20.788;2023-04-06T12:53:40;9.50;;;6.70;;
38611;SDS011;24368;52.156;20.788;2023-04-06T12:58:42;5.80;;;5.10;;
38611;SDS011;24368;52.156;20.788;2023-04-06T13:03:43;6.60;;;5.90;;
38611;SDS011;24368;52.156;20.788;2023-04-06T13:08:44;7.40;;;5.70;;
38611;SDS011;24368;52.156;20.788;2023-04-06T13:13:47;6.70;;;5.30;;
38611;SDS011;24368;52.156;20.788;2023-04-06T13:18:49;6.80;;;6.10;;
38611;SDS011;24368;52.156;20.788;2023-04-06T13:23:50;7.40;;;5.60;;
38611;SDS011;24368;52.156;20.788;2023-04-06T13:28:52;8.50;;;6.00;;
38611;SDS011;24368;52.156;20.788;2023-04-06T13:33:53;6.40;;;5.70;;
38611;SDS011;24368;52.156;20.788;2023-04-06T13:38:55;5.90;;;5.30;;
38611;SDS011;24368;52.156;20.788;2023-04-06T13:43:56;7.20;;;5.50;;
38611;SDS011;24368;52.156;20.788;2023-04-06T13:48:58;6.30;;;5.30;;
38611;SDS011;24368;52.156;20.788;2023-04-06T13:53:59;5.50;;;4.90;;
38611;SDS011;24368;52.156;20.788;2023-04-06T13:59:02;7.60;;;6.80;;
38611;SDS011;24368;52.156;20.788;2023-04-06T14:04:03;7.10;;;5.10;;
38611;SDS011;24368;52.156;20.788;2023-04-06T14:09:05;10.10;;;6.90;;
38611;SDS011;24368;52.156;20.788;2023-04-06T14:14:06;10.20;;;6.10;;
38611;SDS011;24368;52.156;20.788;2023-04-06T14:19:07;7.20;;;5.10;;
38611;SDS011;24368;52.156;20.788;2023-04-06T14:24:08;6.70;;;5.20;;
38611;SDS011;24368;52.156;20.788;2023-04-06T14:29:10;6.00;;;5.20;;
38611;SDS011;24368;52.156;20.788;2023-04-06T14:34:11;6.50;;;5.50;;
38611;SDS011;24368;52.156;20.788;2023-04-06T14:39:12;8.70;;;5.80;;
38611;SDS011;24368;52.156;20.788;2023-04-06T14:44:14;6.10;;;5.20;;
38611;SDS011;24368;52.156;20.788;2023-04-06T14:49:17;5.00;;;4.50;;
38611;SDS011;24368;52.156;20.788;2023-04-06T14:54:18;5.80;;;4.60;;
38611;SDS011;24368;52.156;20.788;2023-04-06T14:59:19;7.50;;;5.30;;
38611;SDS011;24368;52.156;20.788;2023-04-06T15:04:20;8.50;;;6.20;;
38611;SDS011;24368;52.156;20.788;2023-04-06T15:09:21;6.70;;;6.00;;
38611;SDS011;24368;52.156;20.788;2023-04-06T15:14:22;6.20;;;5.40;;
38611;SDS011;24368;52.156;20.788;2023-04-06T15:19:24;8.70;;;7.80;;
38611;SDS011;24368;52.156;20.788;2023-04-06T15:24:25;7.70;;;6.60;;
38611;SDS011;24368;52.156;20.788;2023-04-06T15:29:26;9.00;;;6.20;;
38611;SDS011;24368;52.156;20.788;2023-04-06T15:34:27;11.00;;;7.30;;
38611;SDS011;24368;52.156;20.788;2023-04-06T15:39:31;7.90;;;6.20;;
38611;SDS011;24368;52.156;20.788;2023-04-06T15:44:33;8.60;;;6.40;;
38611;SDS011;24368;52.156;20.788;2023-04-06T15:49:35;7.40;;;6.20;;
38611;SDS011;24368;52.156;20.788;2023-04-06T15:54:37;8.00;;;6.10;;
38611;SDS011;24368;52.156;20.788;2023-04-06T15:59:40;8.20;;;6.00;;
38611;SDS011;24368;52.156;20.788;2023-04-06T16:04:41;8.00;;;6.50;;
38611;SDS011;24368;52.156;20.788;2023-04-06T16:09:42;11.10;;;7.00;;
38611;SDS011;24368;52.156;20.788;2023-04-06T16:14:44;7.80;;;7.00;;
38611;SDS011;24368;52.156;20.788;2023-04-06T16:19:45;8.80;;;7.20;;
38611;SDS011;24368;52.156;20.788;2023-04-06T16:24:47;7.70;;;6.90;;
38611;SDS011;24368;52.156;20.788;2023-04-06T16:29:48;6.90;;;6.20;;
38611;SDS011;24368;52.156;20.788;2023-04-06T16:34:49;8.50;;;6.70;;
38611;SDS011;24368;52.156;20.788;2023-04-06T16:39:51;7.90;;;7.10;;
38611;SDS011;24368;52.156;20.788;2023-04-06T16:44:52;10.10;;;6.80;;
38611;SDS011;24368;52.156;20.788;2023-04-06T16:49:54;8.30;;;6.90;;
38611;SDS011;24368;52.156;20.788;2023-04-06T16:54:57;8.70;;;7.00;;
38611;SDS011;24368;52.156;20.788;2023-04-06T16:59:58;12.80;;;9.70;;
38611;SDS011;24368;52.156;20.788;2023-04-06T17:05:00;9.20;;;7.60;;
38611;SDS011;24368;52.156;20.788;2023-04-06T17:10:05;9.00;;;7.10;;
38611;SDS011;24368;52.156;20.788;2023-04-06T17:15:07;10.70;;;8.20;;
38611;SDS011;24368;52.156;20.788;2023-04-06T17:20:09;12.10;;;9.50;;
38611;SDS011;24368;52.156;20.788;2023-04-06T17:25:10;8.10;;;7.20;;
38611;SDS011;24368;52.156;20.788;2023-04-06T17:30:12;9.00;;;7.50;;
38611;SDS011;24368;52.156;20.788;2023-04-06T17:35:14;10.20;;;8.20;;
38611;SDS011;24368;52.156;20.788;2023-04-06T17:40:15;19.30;;;12.50;;
38611;SDS011;24368;52.156;20.788;2023-04-06T17:45:17;20.90;;;15.70;;
38611;SDS011;24368;52.156;20.788;2023-04-06T17:50:18;12.40;;;10.60;;
38611;SDS011;24368;52.156;20.788;2023-04-06T17:55:20;11.70;;;8.40;;
38611;SDS011;24368;52.156;20.788;2023-04-06T18:00:22;10.70;;;9.30;;
38611;SDS011;24368;52.156;20.788;2023-04-06T18:05:24;11.60;;;8.60;;
38611;SDS011;24368;52.156;20.788;2023-04-06T18:10:28;10.80;;;8.40;;
38611;SDS011;24368;52.156;20.788;2023-04-06T18:15:29;10.50;;;8.50;;
38611;SDS011;24368;52.156;20.788;2023-04-06T18:20:31;12.30;;;8.40;;
38611;SDS011;24368;52.156;20.788;2023-04-06T18:25:36;10.80;;;8.70;;
38611;SDS011;24368;52.156;20.788;2023-04-06T18:30:41;11.60;;;9.00;;
38611;SDS011;24368;52.156;20.788;2023-04-06T18:35:42;11.40;;;9.40;;
38611;SDS011;24368;52.156;20.788;2023-04-06T18:40:44;9.90;;;7.50;;
38611;SDS011;24368;52.156;20.788;2023-04-06T18:45:45;9.30;;;8.30;;
38611;SDS011;24368;52.156;20.788;2023-04-06T18:50:56;11.00;;;8.70;;
38611;SDS011;24368;52.156;20.788;2023-04-06T18:56:01;11.40;;;8.70;;
38611;SDS011;24368;52.156;20.788;2023-04-06T19:01:04;9.80;;;8.10;;
38611;SDS011;24368;52.156;20.788;2023-04-06T19:06:06;9.90;;;8.00;;
38611;SDS011;24368;52.156;20.788;2023-04-06T19:11:07;9.90;;;7.30;;
38611;SDS011;24368;52.156;20.788;2023-04-06T19:16:09;10.00;;;8.60;;
38611;SDS011;24368;52.156;20.788;2023-04-06T19:21:18;11.10;;;9.00;;
38611;SDS011;24368;52.156;20.788;2023-04-06T19:26:24;13.00;;;9.80;;
38611;SDS011;24368;52.156;20.788;2023-04-06T19:31:30;13.40;;;9.30;;
38611;SDS011;24368;52.156;20.788;2023-04-06T19:36:32;9.80;;;8.00;;
38611;SDS011;24368;52.156;20.788;2023-04-06T19:41:33;9.70;;;7.70;;
38611;SDS011;24368;52.156;20.788;2023-04-06T19:46:34;8.30;;;7.20;;
38611;SDS011;24368;52.156;20.788;2023-04-06T19:51:35;10.10;;;8.50;;
38611;SDS011;24368;52.156;20.788;2023-04-06T19:56:36;10.70;;;8.70;;
38611;SDS011;24368;52.156;20.788;2023-04-06T20:01:39;10.10;;;7.90;;
38611;SDS011;24368;52.156;20.788;2023-04-06T20:06:42;10.90;;;7.80;;
38611;SDS011;24368;52.156;20.788;2023-04-06T20:11:43;9.10;;;7.90;;
38611;SDS011;24368;52.156;20.788;2023-04-06T20:16:45;11.40;;;9.50;;
38611;SDS011;24368;52.156;20.788;2023-04-06T20:21:47;10.80;;;9.10;;
38611;SDS011;24368;52.156;20.788;2023-04-06T20:26:48;8.60;;;7.70;;
38611;SDS011;24368;52.156;20.788;2023-04-06T20:31:50;8.90;;;7.90;;
38611;SDS011;24368;52.156;20.788;2023-04-06T20:36:51;7.70;;;6.90;;
38611;SDS011;24368;52.156;20.788;2023-04-06T20:41:53;7.80;;;6.80;;
38611;SDS011;24368;52.156;20.788;2023-04-06T20:46:54;7.40;;;6.70;;
38611;SDS011;24368;52.156;20.788;2023-04-06T20:51:55;10.20;;;7.80;;
38611;SDS011;24368;52.156;20.788;2023-04-06T20:56:57;9.60;;;8.20;;
38611;SDS011;24368;52.156;20.788;2023-04-06T21:02:00;7.20;;;6.50;;
38611;SDS011;24368;52.156;20.788;2023-04-06T21:07:07;8.60;;;7.00;;
38611;SDS011;24368;52.156;20.788;2023-04-06T21:12:08;8.60;;;6.80;;
38611;SDS011;24368;52.156;20.788;2023-04-06T21:17:09;9.30;;;7.30;;
38611;SDS011;24368;52.156;20.788;2023-04-06T21:22:11;9.20;;;8.30;;
38611;SDS011;24368;52.156;20.788;2023-04-06T21:27:12;11.30;;;8.40;;
38611;SDS011;24368;52.156;20.788;2023-04-06T21:32:13;9.00;;;8.10;;
38611;SDS011;24368;52.156;20.788;2023-04-06T21:37:14;10.00;;;8.20;;
38611;SDS011;24368;52.156;20.788;2023-04-06T21:42:15;10.80;;;8.30;;
38611;SDS011;24368;52.156;20.788;2023-04-06T21:47:16;9.60;;;8.70;;
38611;SDS011;24368;52.156;20.788;2023-04-06T21:52:18;11.70;;;10.20;;
38611;SDS011;24368;52.156;20.788;2023-04-06T21:57:19;11.10;;;9.90;;
38611;SDS011;24368;52.156;20.788;2023-04-06T22:02:20;11.50;;;10.00;;
38611;SDS011;24368;52.156;20.788;2023-04-06T22:07:21;11.90;;;10.80;;
38611;SDS011;24368;52.156;20.788;2023-04-06T22:12:22;12.80;;;11.50;;
38611;SDS011;24368;52.156;20.788;2023-04-06T22:17:24;12.80;;;11.50;;
38611;SDS011;24368;52.156;20.788;2023-04-06T22:22:25;14.50;;;13.00;;
38611;SDS011;24368;52.156;20.788;2023-04-06T22:27:26;12.50;;;10.90;;
38611;SDS011;24368;52.156;20.788;2023-04-06T22:32:27;12.60;;;11.40;;
38611;SDS011;24368;52.156;20.788;2023-04-06T22:37:28;13.10;;;11.80;;
38611;SDS011;24368;52.156;20.788;2023-04-06T22:42:29;14.80;;;12.90;;
38611;SDS011;24368;52.156;20.788;2023-04-06T22:47:31;15.40;;;12.00;;
38611;SDS011;24368;52.156;20.788;2023-04-06T22:52:32;17.70;;;11.90;;
38611;SDS011;24368;52.156;20.788;2023-04-06T22:57:33;16.00;;;12.20;;
38611;SDS011;24368;52.156;20.788;2023-04-06T23:02:35;14.00;;;11.10;;
38611;SDS011;24368;52.156;20.788;2023-04-06T23:07:36;14.80;;;12.10;;
38611;SDS011;24368;52.156;20.788;2023-04-06T23:12:37;15.10;;;13.50;;
38611;SDS011;24368;52.156;20.788;2023-04-06T23:17:38;12.90;;;11.60;;
38611;SDS011;24368;52.156;20.788;2023-04-06T23:22:39;12.10;;;10.70;;
38611;SDS011;24368;52.156;20.788;2023-04-06T23:27:40;14.00;;;11.80;;
38611;SDS011;24368;52.156;20.788;2023-04-06T23:32:41;11.40;;;10.30;;
38611;SDS011;24368;52.156;20.788;2023-04-06T23:37:42;13.00;;;11.60;;
38611;SDS011;24368;52.156;20.788;2023-04-06T23:42:43;13.70;;;12.00;;
38611;SDS011;24368;52.156;20.788;2023-04-06T23:47:45;12.50;;;10.60;;
38611;SDS011;24368;52.156;20.788;2023-04-06T23:52:46;11.50;;;10.30;;
38611;SDS011;24368;52.156;20.788;2023-04-06T23:57:47;11.80;;;10.60;;
